sensor_id;sensor_type;location;lat;lon;timestamp;P1;durP1;ratioP1;P2;durP2;ratioP2
68792;SDS011;55778;54.346;10.210;2023-03-23T00:01:26;20.80;;;9.82;;
68792;SDS011;55778;54.346;10.210;2023-03-23T00:03:55;18.00;;;9.13;;
68792;SDS011;55778;54.346;10.210;2023-03-23T00:06:23;22.73;;;10.68;;
68792;SDS011;55778;54.346;10.210;2023-03-23T00:08:51;20.60;;;10.15;;
68792;SDS011;55778;54.346;10.210;2023-03-23T00:11:22;20.30;;;10.77;;
68792;SDS011;55778;54.346;10.210;2023-03-23T00:16:17;17.23;;;9.05;;
68792;SDS011;55778;54.346;10.210;2023-03-23T00:18:45;21.48;;;10.88;;
68792;SDS011;55778;54.346;10.210;2023-03-23T00:21:24;21.02;;;9.82;;
68792;SDS011;55778;54.346;10.210;2023-03-23T00:23:59;19.73;;;9.43;;
68792;SDS011;55778;54.346;10.210;2023-03-23T00:26:41;20.98;;;9.65;;
68792;SDS011;55778;54.346;10.210;2023-03-23T00:29:10;21.60;;;11.02;;
68792;SDS011;55778;54.346;10.210;2023-03-23T00:31:41;22.83;;;11.48;;
68792;SDS011;55778;54.346;10.210;2023-03-23T00:34:12;24.02;;;11.45;;
68792;SDS011;55778;54.346;10.210;2023-03-23T00:36:44;21.92;;;9.75;;
68792;SDS011;55778;54.346;10.210;2023-03-23T00:39:13;27.35;;;11.45;;
68792;SDS011;55778;54.346;10.210;2023-03-23T00:41:41;21.25;;;10.65;;
68792;SDS011;55778;54.346;10.210;2023-03-23T00:44:09;25.10;;;10.95;;
68792;SDS011;55778;54.346;10.210;2023-03-23T00:46:35;23.40;;;11.10;;
68792;SDS011;55778;54.346;10.210;2023-03-23T00:49:09;21.15;;;10.80;;
68792;SDS011;55778;54.346;10.210;2023-03-23T00:51:38;18.30;;;9.65;;
68792;SDS011;55778;54.346;10.210;2023-03-23T00:54:04;18.38;;;9.30;;
68792;SDS011;55778;54.346;10.210;2023-03-23T00:56:30;18.45;;;9.38;;
68792;SDS011;55778;54.346;10.210;2023-03-23T00:58:55;20.15;;;9.95;;
68792;SDS011;55778;54.346;10.210;2023-03-23T01:01:21;20.75;;;10.25;;
68792;SDS011;55778;54.346;10.210;2023-03-23T01:03:46;26.48;;;10.88;;
68792;SDS011;55778;54.346;10.210;2023-03-23T01:06:12;21.23;;;10.00;;
68792;SDS011;55778;54.346;10.210;2023-03-23T01:08:38;21.95;;;10.23;;
68792;SDS011;55778;54.346;10.210;2023-03-23T01:11:10;21.27;;;10.38;;
68792;SDS011;55778;54.346;10.210;2023-03-23T01:13:43;21.33;;;9.82;;
68792;SDS011;55778;54.346;10.210;2023-03-23T01:16:09;20.08;;;9.15;;
68792;SDS011;55778;54.346;10.210;2023-03-23T01:18:35;20.40;;;9.50;;
68792;SDS011;55778;54.346;10.210;2023-03-23T01:21:09;20.35;;;9.35;;
68792;SDS011;55778;54.346;10.210;2023-03-23T01:23:36;20.15;;;10.02;;
68792;SDS011;55778;54.346;10.210;2023-03-23T01:26:03;19.08;;;9.30;;
68792;SDS011;55778;54.346;10.210;2023-03-23T01:28:30;19.35;;;9.00;;
68792;SDS011;55778;54.346;10.210;2023-03-23T01:30:59;19.52;;;9.25;;
68792;SDS011;55778;54.346;10.210;2023-03-23T01:33:28;19.88;;;9.20;;
68792;SDS011;55778;54.346;10.210;2023-03-23T01:35:54;22.23;;;10.02;;
68792;SDS011;55778;54.346;10.210;2023-03-23T01:38:20;21.45;;;9.57;;
68792;SDS011;55778;54.346;10.210;2023-03-23T01:40:46;20.67;;;8.75;;
68792;SDS011;55778;54.346;10.210;2023-03-23T01:43:12;18.58;;;8.30;;
68792;SDS011;55778;54.346;10.210;2023-03-23T01:45:39;15.65;;;6.95;;
68792;SDS011;55778;54.346;10.210;2023-03-23T01:48:20;16.67;;;7.30;;
68792;SDS011;55778;54.346;10.210;2023-03-23T01:50:57;16.35;;;7.25;;
68792;SDS011;55778;54.346;10.210;2023-03-23T01:53:36;14.68;;;6.03;;
68792;SDS011;55778;54.346;10.210;2023-03-23T01:56:03;13.80;;;6.30;;
68792;SDS011;55778;54.346;10.210;2023-03-23T01:58:32;9.68;;;4.88;;
68792;SDS011;55778;54.346;10.210;2023-03-23T02:01:02;11.80;;;5.40;;
68792;SDS011;55778;54.346;10.210;2023-03-23T02:03:31;13.57;;;6.10;;
68792;SDS011;55778;54.346;10.210;2023-03-23T02:05:58;10.68;;;4.80;;
68792;SDS011;55778;54.346;10.210;2023-03-23T02:08:24;14.23;;;5.35;;
68792;SDS011;55778;54.346;10.210;2023-03-23T02:10:53;12.98;;;5.53;;
68792;SDS011;55778;54.346;10.210;2023-03-23T02:13:19;12.30;;;5.32;;
68792;SDS011;55778;54.346;10.210;2023-03-23T02:18:41;12.07;;;5.72;;
68792;SDS011;55778;54.346;10.210;2023-03-23T02:26:57;13.18;;;5.60;;
68792;SDS011;55778;54.346;10.210;2023-03-23T02:29:51;13.07;;;6.70;;
68792;SDS011;55778;54.346;10.210;2023-03-23T02:35:29;14.38;;;6.13;;
68792;SDS011;55778;54.346;10.210;2023-03-23T02:38:00;15.75;;;7.10;;
68792;SDS011;55778;54.346;10.210;2023-03-23T02:40:30;15.10;;;7.13;;
68792;SDS011;55778;54.346;10.210;2023-03-23T02:43:01;15.75;;;7.05;;
68792;SDS011;55778;54.346;10.210;2023-03-23T02:45:32;17.23;;;7.38;;
68792;SDS011;55778;54.346;10.210;2023-03-23T02:47:59;18.35;;;7.93;;
68792;SDS011;55778;54.346;10.210;2023-03-23T02:50:27;17.27;;;7.68;;
68792;SDS011;55778;54.346;10.210;2023-03-23T02:52:54;15.73;;;7.15;;
68792;SDS011;55778;54.346;10.210;2023-03-23T02:55:23;15.80;;;7.00;;
68792;SDS011;55778;54.346;10.210;2023-03-23T02:57:50;16.58;;;7.78;;
68792;SDS011;55778;54.346;10.210;2023-03-23T03:00:17;19.20;;;8.07;;
68792;SDS011;55778;54.346;10.210;2023-03-23T03:02:44;16.88;;;7.25;;
68792;SDS011;55778;54.346;10.210;2023-03-23T03:13:24;15.68;;;6.82;;
68792;SDS011;55778;54.346;10.210;2023-03-23T03:15:55;15.50;;;7.07;;
68792;SDS011;55778;54.346;10.210;2023-03-23T03:18:28;13.55;;;6.15;;
68792;SDS011;55778;54.346;10.210;2023-03-23T03:21:01;12.48;;;6.00;;
68792;SDS011;55778;54.346;10.210;2023-03-23T03:23:29;12.35;;;5.95;;
68792;SDS011;55778;54.346;10.210;2023-03-23T03:25:57;10.63;;;4.70;;
68792;SDS011;55778;54.346;10.210;2023-03-23T03:28:24;13.90;;;5.53;;
68792;SDS011;55778;54.346;10.210;2023-03-23T03:30:55;12.88;;;5.35;;
68792;SDS011;55778;54.346;10.210;2023-03-23T03:33:25;12.88;;;5.32;;
68792;SDS011;55778;54.346;10.210;2023-03-23T03:35:55;11.93;;;5.55;;
68792;SDS011;55778;54.346;10.210;2023-03-23T03:38:23;12.07;;;4.60;;
68792;SDS011;55778;54.346;10.210;2023-03-23T03:40:50;9.63;;;4.70;;
68792;SDS011;55778;54.346;10.210;2023-03-23T03:43:16;11.65;;;5.32;;
68792;SDS011;55778;54.346;10.210;2023-03-23T03:45:41;15.15;;;5.70;;
68792;SDS011;55778;54.346;10.210;2023-03-23T03:48:07;12.52;;;5.20;;
68792;SDS011;55778;54.346;10.210;2023-03-23T03:50:33;8.02;;;3.80;;
68792;SDS011;55778;54.346;10.210;2023-03-23T03:52:58;10.50;;;4.47;;
68792;SDS011;55778;54.346;10.210;2023-03-23T03:55:23;9.50;;;4.03;;
68792;SDS011;55778;54.346;10.210;2023-03-23T03:57:50;8.73;;;3.60;;
68792;SDS011;55778;54.346;10.210;2023-03-23T04:00:15;8.65;;;3.88;;
68792;SDS011;55778;54.346;10.210;2023-03-23T04:02:42;10.40;;;3.88;;
68792;SDS011;55778;54.346;10.210;2023-03-23T04:05:12;9.20;;;4.53;;
68792;SDS011;55778;54.346;10.210;2023-03-23T04:07:38;7.57;;;3.75;;
68792;SDS011;55778;54.346;10.210;2023-03-23T04:10:07;6.18;;;3.25;;
68792;SDS011;55778;54.346;10.210;2023-03-23T04:12:38;7.53;;;3.22;;
68792;SDS011;55778;54.346;10.210;2023-03-23T04:15:03;7.40;;;3.10;;
68792;SDS011;55778;54.346;10.210;2023-03-23T04:17:30;9.15;;;3.55;;
68792;SDS011;55778;54.346;10.210;2023-03-23T04:19:55;8.32;;;3.67;;
68792;SDS011;55778;54.346;10.210;2023-03-23T04:22:32;6.45;;;3.17;;
68792;SDS011;55778;54.346;10.210;2023-03-23T04:24:58;6.28;;;3.25;;
68792;SDS011;55778;54.346;10.210;2023-03-23T04:27:25;10.18;;;3.50;;
68792;SDS011;55778;54.346;10.210;2023-03-23T04:29:53;6.35;;;2.90;;
68792;SDS011;55778;54.346;10.210;2023-03-23T04:32:21;6.22;;;2.60;;
68792;SDS011;55778;54.346;10.210;2023-03-23T04:34:47;4.35;;;2.70;;
68792;SDS011;55778;54.346;10.210;2023-03-23T04:37:13;4.90;;;2.38;;
68792;SDS011;55778;54.346;10.210;2023-03-23T04:39:39;5.88;;;2.70;;
68792;SDS011;55778;54.346;10.210;2023-03-23T04:42:04;6.22;;;2.60;;
68792;SDS011;55778;54.346;10.210;2023-03-23T04:44:30;5.30;;;2.05;;
68792;SDS011;55778;54.346;10.210;2023-03-23T04:46:57;7.35;;;3.38;;
68792;SDS011;55778;54.346;10.210;2023-03-23T04:49:26;3.58;;;1.45;;
68792;SDS011;55778;54.346;10.210;2023-03-23T04:51:51;3.78;;;1.90;;
68792;SDS011;55778;54.346;10.210;2023-03-23T04:54:17;5.30;;;1.92;;
68792;SDS011;55778;54.346;10.210;2023-03-23T04:56:43;9.38;;;4.55;;
68792;SDS011;55778;54.346;10.210;2023-03-23T04:59:08;30.20;;;10.60;;
68792;SDS011;55778;54.346;10.210;2023-03-23T05:01:33;9.80;;;3.90;;
68792;SDS011;55778;54.346;10.210;2023-03-23T05:04:02;11.50;;;4.72;;
68792;SDS011;55778;54.346;10.210;2023-03-23T05:06:27;5.93;;;2.15;;
68792;SDS011;55778;54.346;10.210;2023-03-23T05:08:52;3.53;;;1.63;;
68792;SDS011;55778;54.346;10.210;2023-03-23T05:11:18;2.85;;;1.60;;
68792;SDS011;55778;54.346;10.210;2023-03-23T05:13:43;3.17;;;1.67;;
68792;SDS011;55778;54.346;10.210;2023-03-23T05:16:09;3.72;;;1.90;;
68792;SDS011;55778;54.346;10.210;2023-03-23T05:18:34;4.28;;;1.50;;
68792;SDS011;55778;54.346;10.210;2023-03-23T05:21:00;3.47;;;1.60;;
68792;SDS011;55778;54.346;10.210;2023-03-23T05:23:26;3.17;;;1.63;;
68792;SDS011;55778;54.346;10.210;2023-03-23T05:25:55;4.45;;;1.90;;
68792;SDS011;55778;54.346;10.210;2023-03-23T05:28:25;3.63;;;1.60;;
68792;SDS011;55778;54.346;10.210;2023-03-23T05:30:52;2.78;;;1.65;;
68792;SDS011;55778;54.346;10.210;2023-03-23T05:33:18;4.97;;;2.20;;
68792;SDS011;55778;54.346;10.210;2023-03-23T05:35:45;5.55;;;2.58;;
68792;SDS011;55778;54.346;10.210;2023-03-23T05:38:12;6.53;;;2.92;;
68792;SDS011;55778;54.346;10.210;2023-03-23T05:40:39;9.30;;;4.80;;
68792;SDS011;55778;54.346;10.210;2023-03-23T05:43:06;9.60;;;4.80;;
68792;SDS011;55778;54.346;10.210;2023-03-23T05:45:32;10.05;;;4.72;;
68792;SDS011;55778;54.346;10.210;2023-03-23T05:47:58;14.45;;;5.72;;
68792;SDS011;55778;54.346;10.210;2023-03-23T05:50:23;16.13;;;6.65;;
68792;SDS011;55778;54.346;10.210;2023-03-23T05:52:48;16.65;;;7.70;;
68792;SDS011;55778;54.346;10.210;2023-03-23T05:55:16;19.20;;;8.13;;
68792;SDS011;55778;54.346;10.210;2023-03-23T05:57:41;17.48;;;7.60;;
68792;SDS011;55778;54.346;10.210;2023-03-23T06:00:07;19.25;;;8.68;;
68792;SDS011;55778;54.346;10.210;2023-03-23T06:02:40;21.98;;;9.63;;
68792;SDS011;55778;54.346;10.210;2023-03-23T06:05:09;17.17;;;8.77;;
68792;SDS011;55778;54.346;10.210;2023-03-23T06:07:38;22.48;;;10.25;;
68792;SDS011;55778;54.346;10.210;2023-03-23T06:10:04;21.10;;;10.18;;
68792;SDS011;55778;54.346;10.210;2023-03-23T06:12:32;26.02;;;11.23;;
68792;SDS011;55778;54.346;10.210;2023-03-23T06:14:57;23.15;;;10.45;;
68792;SDS011;55778;54.346;10.210;2023-03-23T06:17:23;26.63;;;12.93;;
68792;SDS011;55778;54.346;10.210;2023-03-23T06:19:49;27.90;;;13.32;;
68792;SDS011;55778;54.346;10.210;2023-03-23T06:22:15;28.63;;;13.77;;
68792;SDS011;55778;54.346;10.210;2023-03-23T06:24:41;29.83;;;12.10;;
68792;SDS011;55778;54.346;10.210;2023-03-23T06:27:07;28.08;;;13.00;;
68792;SDS011;55778;54.346;10.210;2023-03-23T06:29:33;30.40;;;13.68;;
68792;SDS011;55778;54.346;10.210;2023-03-23T06:32:00;29.98;;;13.70;;
68792;SDS011;55778;54.346;10.210;2023-03-23T06:34:27;23.30;;;11.35;;
68792;SDS011;55778;54.346;10.210;2023-03-23T06:36:52;30.15;;;13.07;;
68792;SDS011;55778;54.346;10.210;2023-03-23T06:39:18;24.63;;;11.18;;
68792;SDS011;55778;54.346;10.210;2023-03-23T06:41:44;25.48;;;12.73;;
68792;SDS011;55778;54.346;10.210;2023-03-23T06:44:09;26.15;;;13.30;;
68792;SDS011;55778;54.346;10.210;2023-03-23T06:46:38;21.60;;;10.88;;
68792;SDS011;55778;54.346;10.210;2023-03-23T06:49:03;26.38;;;11.93;;
68792;SDS011;55778;54.346;10.210;2023-03-23T06:51:30;24.42;;;11.45;;
68792;SDS011;55778;54.346;10.210;2023-03-23T06:53:55;21.45;;;11.40;;
68792;SDS011;55778;54.346;10.210;2023-03-23T06:56:22;23.05;;;12.48;;
68792;SDS011;55778;54.346;10.210;2023-03-23T06:58:47;19.90;;;11.55;;
68792;SDS011;55778;54.346;10.210;2023-03-23T07:01:13;22.70;;;11.25;;
68792;SDS011;55778;54.346;10.210;2023-03-23T07:03:40;21.08;;;11.05;;
68792;SDS011;55778;54.346;10.210;2023-03-23T07:06:06;20.10;;;11.38;;
68792;SDS011;55778;54.346;10.210;2023-03-23T07:08:33;24.38;;;11.65;;
68792;SDS011;55778;54.346;10.210;2023-03-23T07:10:58;23.50;;;10.90;;
68792;SDS011;55778;54.346;10.210;2023-03-23T07:13:23;16.77;;;8.88;;
68792;SDS011;55778;54.346;10.210;2023-03-23T07:15:50;18.23;;;10.30;;
68792;SDS011;55778;54.346;10.210;2023-03-23T07:18:15;17.58;;;8.57;;
68792;SDS011;55778;54.346;10.210;2023-03-23T07:20:41;13.70;;;7.25;;
68792;SDS011;55778;54.346;10.210;2023-03-23T07:23:07;18.73;;;8.82;;
68792;SDS011;55778;54.346;10.210;2023-03-23T07:25:34;18.13;;;9.38;;
68792;SDS011;55778;54.346;10.210;2023-03-23T07:28:00;14.05;;;8.05;;
68792;SDS011;55778;54.346;10.210;2023-03-23T07:30:27;15.38;;;8.82;;
68792;SDS011;55778;54.346;10.210;2023-03-23T07:32:54;17.73;;;9.38;;
68792;SDS011;55778;54.346;10.210;2023-03-23T07:35:21;15.10;;;8.75;;
68792;SDS011;55778;54.346;10.210;2023-03-23T07:37:47;18.10;;;9.27;;
68792;SDS011;55778;54.346;10.210;2023-03-23T07:40:14;17.25;;;9.57;;
68792;SDS011;55778;54.346;10.210;2023-03-23T07:42:43;17.60;;;8.23;;
68792;SDS011;55778;54.346;10.210;2023-03-23T07:45:14;14.98;;;7.65;;
68792;SDS011;55778;54.346;10.210;2023-03-23T07:47:40;15.57;;;7.80;;
68792;SDS011;55778;54.346;10.210;2023-03-23T07:50:06;12.73;;;7.10;;
68792;SDS011;55778;54.346;10.210;2023-03-23T07:52:33;12.95;;;7.78;;
68792;SDS011;55778;54.346;10.210;2023-03-23T07:55:01;13.23;;;6.60;;
68792;SDS011;55778;54.346;10.210;2023-03-23T07:57:28;11.35;;;6.85;;
68792;SDS011;55778;54.346;10.210;2023-03-23T07:59:54;12.85;;;6.60;;
68792;SDS011;55778;54.346;10.210;2023-03-23T08:02:20;12.32;;;5.55;;
68792;SDS011;55778;54.346;10.210;2023-03-23T08:04:46;8.10;;;4.55;;
68792;SDS011;55778;54.346;10.210;2023-03-23T08:07:12;9.10;;;5.10;;
68792;SDS011;55778;54.346;10.210;2023-03-23T08:09:38;9.02;;;4.15;;
68792;SDS011;55778;54.346;10.210;2023-03-23T08:12:04;9.63;;;3.83;;
68792;SDS011;55778;54.346;10.210;2023-03-23T08:14:30;9.52;;;4.35;;
68792;SDS011;55778;54.346;10.210;2023-03-23T08:16:55;8.85;;;3.15;;
68792;SDS011;55778;54.346;10.210;2023-03-23T08:19:22;6.50;;;3.28;;
68792;SDS011;55778;54.346;10.210;2023-03-23T08:21:48;7.30;;;2.95;;
68792;SDS011;55778;54.346;10.210;2023-03-23T08:24:14;5.93;;;2.97;;
68792;SDS011;55778;54.346;10.210;2023-03-23T08:26:39;7.82;;;2.53;;
68792;SDS011;55778;54.346;10.210;2023-03-23T08:29:05;9.38;;;2.65;;
68792;SDS011;55778;54.346;10.210;2023-03-23T08:31:31;5.68;;;2.45;;
68792;SDS011;55778;54.346;10.210;2023-03-23T08:33:59;5.25;;;1.80;;
68792;SDS011;55778;54.346;10.210;2023-03-23T08:36:25;8.20;;;2.10;;
68792;SDS011;55778;54.346;10.210;2023-03-23T08:38:52;6.40;;;1.85;;
68792;SDS011;55778;54.346;10.210;2023-03-23T08:41:18;6.47;;;1.77;;
68792;SDS011;55778;54.346;10.210;2023-03-23T08:43:44;7.13;;;1.30;;
68792;SDS011;55778;54.346;10.210;2023-03-23T08:46:09;5.72;;;1.67;;
68792;SDS011;55778;54.346;10.210;2023-03-23T08:48:36;6.53;;;1.70;;
68792;SDS011;55778;54.346;10.210;2023-03-23T08:51:03;6.10;;;2.00;;
68792;SDS011;55778;54.346;10.210;2023-03-23T08:53:32;5.65;;;1.98;;
68792;SDS011;55778;54.346;10.210;2023-03-23T08:56:05;6.15;;;1.48;;
68792;SDS011;55778;54.346;10.210;2023-03-23T08:58:31;9.27;;;1.73;;
68792;SDS011;55778;54.346;10.210;2023-03-23T09:00:57;8.55;;;1.85;;
68792;SDS011;55778;54.346;10.210;2023-03-23T09:03:23;6.13;;;1.63;;
68792;SDS011;55778;54.346;10.210;2023-03-23T09:05:48;9.57;;;1.73;;
68792;SDS011;55778;54.346;10.210;2023-03-23T09:08:13;6.68;;;1.90;;
68792;SDS011;55778;54.346;10.210;2023-03-23T09:10:39;8.00;;;1.77;;
68792;SDS011;55778;54.346;10.210;2023-03-23T09:13:04;3.55;;;1.60;;
68792;SDS011;55778;54.346;10.210;2023-03-23T09:15:31;6.30;;;1.77;;
68792;SDS011;55778;54.346;10.210;2023-03-23T09:17:57;6.13;;;1.65;;
68792;SDS011;55778;54.346;10.210;2023-03-23T09:20:24;7.75;;;1.92;;
68792;SDS011;55778;54.346;10.210;2023-03-23T09:22:52;5.18;;;1.40;;
68792;SDS011;55778;54.346;10.210;2023-03-23T09:25:20;8.23;;;1.95;;
68792;SDS011;55778;54.346;10.210;2023-03-23T09:27:51;6.25;;;1.50;;
68792;SDS011;55778;54.346;10.210;2023-03-23T09:30:19;5.70;;;1.58;;
68792;SDS011;55778;54.346;10.210;2023-03-23T09:32:45;3.47;;;1.40;;
68792;SDS011;55778;54.346;10.210;2023-03-23T09:35:13;5.85;;;1.60;;
68792;SDS011;55778;54.346;10.210;2023-03-23T09:37:41;6.88;;;1.90;;
68792;SDS011;55778;54.346;10.210;2023-03-23T09:40:13;8.27;;;1.60;;
68792;SDS011;55778;54.346;10.210;2023-03-23T09:50:48;6.50;;;1.50;;
68792;SDS011;55778;54.346;10.210;2023-03-23T09:53:24;5.90;;;1.40;;
68792;SDS011;55778;54.346;10.210;2023-03-23T09:56:01;6.43;;;1.40;;
68792;SDS011;55778;54.346;10.210;2023-03-23T09:58:35;5.15;;;1.40;;
68792;SDS011;55778;54.346;10.210;2023-03-23T10:01:12;8.52;;;1.98;;
68792;SDS011;55778;54.346;10.210;2023-03-23T10:03:43;8.00;;;1.65;;
68792;SDS011;55778;54.346;10.210;2023-03-23T10:06:14;5.85;;;1.60;;
68792;SDS011;55778;54.346;10.210;2023-03-23T10:08:49;7.00;;;1.52;;
68792;SDS011;55778;54.346;10.210;2023-03-23T10:14:25;9.63;;;2.00;;
68792;SDS011;55778;54.346;10.210;2023-03-23T10:22:51;7.03;;;1.73;;
68792;SDS011;55778;54.346;10.210;2023-03-23T10:25:25;10.90;;;2.13;;
68792;SDS011;55778;54.346;10.210;2023-03-23T10:30:48;4.55;;;1.33;;
68792;SDS011;55778;54.346;10.210;2023-03-23T10:33:20;8.68;;;1.55;;
68792;SDS011;55778;54.346;10.210;2023-03-23T10:38:23;11.10;;;1.65;;
68792;SDS011;55778;54.346;10.210;2023-03-23T10:41:03;5.53;;;1.30;;
68792;SDS011;55778;54.346;10.210;2023-03-23T10:43:36;12.73;;;1.70;;
68792;SDS011;55778;54.346;10.210;2023-03-23T10:46:05;6.25;;;1.27;;
68792;SDS011;55778;54.346;10.210;2023-03-23T10:48:43;7.85;;;1.80;;
68792;SDS011;55778;54.346;10.210;2023-03-23T10:51:10;6.68;;;1.30;;
68792;SDS011;55778;54.346;10.210;2023-03-23T10:53:41;9.77;;;1.70;;
68792;SDS011;55778;54.346;10.210;2023-03-23T10:58:47;8.77;;;1.45;;
68792;SDS011;55778;54.346;10.210;2023-03-23T11:01:12;4.18;;;1.25;;
68792;SDS011;55778;54.346;10.210;2023-03-23T11:03:44;6.85;;;1.38;;
68792;SDS011;55778;54.346;10.210;2023-03-23T11:06:23;6.57;;;1.25;;
68792;SDS011;55778;54.346;10.210;2023-03-23T11:08:55;5.65;;;1.42;;
68792;SDS011;55778;54.346;10.210;2023-03-23T11:11:29;5.60;;;1.48;;
68792;SDS011;55778;54.346;10.210;2023-03-23T11:14:02;5.82;;;1.10;;
68792;SDS011;55778;54.346;10.210;2023-03-23T11:16:42;4.43;;;1.45;;
68792;SDS011;55778;54.346;10.210;2023-03-23T11:19:20;4.22;;;0.90;;
68792;SDS011;55778;54.346;10.210;2023-03-23T11:21:54;6.63;;;1.30;;
68792;SDS011;55778;54.346;10.210;2023-03-23T11:24:27;6.55;;;1.20;;
68792;SDS011;55778;54.346;10.210;2023-03-23T11:26:53;4.65;;;1.20;;
68792;SDS011;55778;54.346;10.210;2023-03-23T11:29:23;6.57;;;1.50;;
68792;SDS011;55778;54.346;10.210;2023-03-23T11:32:02;6.03;;;1.30;;
68792;SDS011;55778;54.346;10.210;2023-03-23T11:34:45;5.63;;;1.42;;
68792;SDS011;55778;54.346;10.210;2023-03-23T11:37:15;8.40;;;1.42;;
68792;SDS011;55778;54.346;10.210;2023-03-23T11:39:52;6.88;;;1.50;;
68792;SDS011;55778;54.346;10.210;2023-03-23T11:42:24;6.95;;;1.27;;
68792;SDS011;55778;54.346;10.210;2023-03-23T11:44:53;7.65;;;1.40;;
68792;SDS011;55778;54.346;10.210;2023-03-23T11:49:57;7.55;;;1.58;;
68792;SDS011;55778;54.346;10.210;2023-03-23T11:52:36;7.00;;;1.65;;
68792;SDS011;55778;54.346;10.210;2023-03-23T11:58:14;8.98;;;1.20;;
68792;SDS011;55778;54.346;10.210;2023-03-23T12:00:57;7.28;;;1.58;;
68792;SDS011;55778;54.346;10.210;2023-03-23T12:03:22;6.05;;;1.35;;
68792;SDS011;55778;54.346;10.210;2023-03-23T12:06:03;9.00;;;1.48;;
68792;SDS011;55778;54.346;10.210;2023-03-23T12:08:38;5.65;;;1.40;;
68792;SDS011;55778;54.346;10.210;2023-03-23T12:16:36;7.65;;;1.55;;
68792;SDS011;55778;54.346;10.210;2023-03-23T12:19:18;8.60;;;1.95;;
68792;SDS011;55778;54.346;10.210;2023-03-23T12:21:52;13.55;;;2.25;;
68792;SDS011;55778;54.346;10.210;2023-03-23T12:35:20;11.60;;;2.03;;
68792;SDS011;55778;54.346;10.210;2023-03-23T12:38:13;7.10;;;1.52;;
68792;SDS011;55778;54.346;10.210;2023-03-23T12:43:24;11.65;;;1.80;;
68792;SDS011;55778;54.346;10.210;2023-03-23T12:46:01;7.97;;;1.30;;
68792;SDS011;55778;54.346;10.210;2023-03-23T12:48:29;6.50;;;1.60;;
68792;SDS011;55778;54.346;10.210;2023-03-23T12:53:38;8.73;;;1.50;;
68792;SDS011;55778;54.346;10.210;2023-03-23T12:58:45;8.88;;;1.75;;
68792;SDS011;55778;54.346;10.210;2023-03-23T13:03:51;13.18;;;2.40;;
68792;SDS011;55778;54.346;10.210;2023-03-23T13:11:43;12.27;;;2.08;;
68792;SDS011;55778;54.346;10.210;2023-03-23T13:17:28;9.57;;;2.08;;
68792;SDS011;55778;54.346;10.210;2023-03-23T13:22:50;8.23;;;1.83;;
68792;SDS011;55778;54.346;10.210;2023-03-23T13:26:03;12.27;;;2.17;;
68792;SDS011;55778;54.346;10.210;2023-03-23T13:28:18;14.60;;;2.42;;
68792;SDS011;55778;54.346;10.210;2023-03-23T13:31:21;10.63;;;2.15;;
68792;SDS011;55778;54.346;10.210;2023-03-23T13:33:46;9.70;;;2.28;;
68792;SDS011;55778;54.346;10.210;2023-03-23T13:36:16;16.52;;;2.50;;
68792;SDS011;55778;54.346;10.210;2023-03-23T13:38:51;9.20;;;2.03;;
68792;SDS011;55778;54.346;10.210;2023-03-23T13:41:17;14.50;;;2.55;;
68792;SDS011;55778;54.346;10.210;2023-03-23T13:43:46;11.73;;;2.47;;
68792;SDS011;55778;54.346;10.210;2023-03-23T13:48:50;14.15;;;2.90;;
68792;SDS011;55778;54.346;10.210;2023-03-23T13:51:33;13.32;;;2.33;;
68792;SDS011;55778;54.346;10.210;2023-03-23T13:54:15;12.43;;;2.50;;
68792;SDS011;55778;54.346;10.210;2023-03-23T13:56:52;11.25;;;2.13;;
68792;SDS011;55778;54.346;10.210;2023-03-23T14:02:20;9.90;;;2.50;;
68792;SDS011;55778;54.346;10.210;2023-03-23T14:04:57;11.13;;;1.90;;
68792;SDS011;55778;54.346;10.210;2023-03-23T14:13:23;17.98;;;2.67;;
68792;SDS011;55778;54.346;10.210;2023-03-23T14:16:04;10.60;;;2.05;;
68792;SDS011;55778;54.346;10.210;2023-03-23T14:18:40;12.18;;;2.17;;
68792;SDS011;55778;54.346;10.210;2023-03-23T14:21:17;9.00;;;2.22;;
68792;SDS011;55778;54.346;10.210;2023-03-23T14:23:51;15.45;;;2.55;;
68792;SDS011;55778;54.346;10.210;2023-03-23T14:26:17;10.77;;;2.38;;
68792;SDS011;55778;54.346;10.210;2023-03-23T14:28:49;9.65;;;2.47;;
68792;SDS011;55778;54.346;10.210;2023-03-23T14:31:25;15.43;;;2.95;;
68792;SDS011;55778;54.346;10.210;2023-03-23T14:33:52;12.32;;;2.15;;
68792;SDS011;55778;54.346;10.210;2023-03-23T14:36:23;16.88;;;3.17;;
68792;SDS011;55778;54.346;10.210;2023-03-23T14:39:04;12.95;;;2.63;;
68792;SDS011;55778;54.346;10.210;2023-03-23T14:41:43;10.88;;;2.72;;
68792;SDS011;55778;54.346;10.210;2023-03-23T14:44:11;11.73;;;2.78;;
68792;SDS011;55778;54.346;10.210;2023-03-23T14:46:41;14.10;;;2.50;;
68792;SDS011;55778;54.346;10.210;2023-03-23T14:49:10;11.45;;;2.40;;
68792;SDS011;55778;54.346;10.210;2023-03-23T14:51:46;19.75;;;2.78;;
68792;SDS011;55778;54.346;10.210;2023-03-23T14:54:20;16.20;;;3.03;;
68792;SDS011;55778;54.346;10.210;2023-03-23T14:56:48;9.75;;;2.45;;
68792;SDS011;55778;54.346;10.210;2023-03-23T14:59:13;14.50;;;2.88;;
68792;SDS011;55778;54.346;10.210;2023-03-23T15:01:39;9.45;;;2.17;;
68792;SDS011;55778;54.346;10.210;2023-03-23T15:06:37;13.93;;;2.72;;
68792;SDS011;55778;54.346;10.210;2023-03-23T15:09:06;15.73;;;2.85;;
68792;SDS011;55778;54.346;10.210;2023-03-23T15:11:37;12.82;;;2.47;;
68792;SDS011;55778;54.346;10.210;2023-03-23T15:14:14;12.52;;;2.33;;
68792;SDS011;55778;54.346;10.210;2023-03-23T15:16:45;13.30;;;3.15;;
68792;SDS011;55778;54.346;10.210;2023-03-23T15:19:28;10.30;;;2.25;;
68792;SDS011;55778;54.346;10.210;2023-03-23T15:22:15;17.23;;;2.53;;
68792;SDS011;55778;54.346;10.210;2023-03-23T15:24:52;10.40;;;2.22;;
68792;SDS011;55778;54.346;10.210;2023-03-23T15:29:59;13.93;;;2.60;;
68792;SDS011;55778;54.346;10.210;2023-03-23T15:32:40;15.40;;;2.47;;
68792;SDS011;55778;54.346;10.210;2023-03-23T15:35:13;15.25;;;2.75;;
68792;SDS011;55778;54.346;10.210;2023-03-23T15:37:44;12.60;;;2.92;;
68792;SDS011;55778;54.346;10.210;2023-03-23T15:40:16;11.10;;;3.05;;
68792;SDS011;55778;54.346;10.210;2023-03-23T15:42:44;9.73;;;2.05;;
68792;SDS011;55778;54.346;10.210;2023-03-23T15:47:45;15.63;;;2.53;;
68792;SDS011;55778;54.346;10.210;2023-03-23T15:52:50;15.38;;;3.17;;
68792;SDS011;55778;54.346;10.210;2023-03-23T15:55:26;13.25;;;2.83;;
68792;SDS011;55778;54.346;10.210;2023-03-23T15:58:11;7.75;;;1.85;;
68792;SDS011;55778;54.346;10.210;2023-03-23T16:00:40;10.43;;;1.88;;
68792;SDS011;55778;54.346;10.210;2023-03-23T16:03:10;10.75;;;2.60;;
68792;SDS011;55778;54.346;10.210;2023-03-23T16:05:39;11.32;;;2.47;;
68792;SDS011;55778;54.346;10.210;2023-03-23T16:08:04;13.32;;;2.67;;
68792;SDS011;55778;54.346;10.210;2023-03-23T16:10:32;6.85;;;2.30;;
68792;SDS011;55778;54.346;10.210;2023-03-23T16:12:58;15.95;;;2.30;;
68792;SDS011;55778;54.346;10.210;2023-03-23T16:15:24;9.73;;;2.78;;
68792;SDS011;55778;54.346;10.210;2023-03-23T16:17:49;12.80;;;2.65;;
68792;SDS011;55778;54.346;10.210;2023-03-23T16:20:19;14.18;;;2.78;;
68792;SDS011;55778;54.346;10.210;2023-03-23T16:22:46;14.57;;;2.70;;
68792;SDS011;55778;54.346;10.210;2023-03-23T16:25:13;11.98;;;2.50;;
68792;SDS011;55778;54.346;10.210;2023-03-23T16:27:40;14.10;;;2.60;;
68792;SDS011;55778;54.346;10.210;2023-03-23T16:30:12;13.63;;;2.40;;
68792;SDS011;55778;54.346;10.210;2023-03-23T16:32:40;12.80;;;2.10;;